• Join FlightAware (Why Join?)
  • Login
  • US Flag 
05:36AM EDT


 

Airport Tracker/Info


-or-


 

Live Flight TrackerFlight Track Log ✈ RPA3379 ✈ 04-May-2013 ✈ KDCA - KPBI

Flight Track Log - Related Links

Times and Time Zones

All times are in EDT time to prevent confusion due to time zone crossing. See the RPA3379 flight status page for this flight to view local times or setup timezone preferences in your user account.

Time Position Orientation Groundspeed Altitude Reporting Facility
EDT Latitude Longitude Course Direction KTS MPH feet Rate Location/Type
02:28PM 38.8667 -77.0500 165° South 144 166 1,500  Level Potomac TRACON
02:29PM 38.9000 -77.0833 322° Northwest 189 217 2,800 1,980 Climbing Potomac TRACON
02:30PM 38.9500 -77.1500 314° West 249 287 5,600 2,880 Climbing Potomac TRACON
02:31PM 38.4643 -76.7029 171° South  Level FlightAware Approximate
02:31PM 39.0167 -77.1167 21° North 270 311 8,900  Level Potomac TRACON
02:32PM 38.3577 -76.6833 180° South  Level FlightAware Approximate
02:32PM 39.0000 -77.0167 102° East 277 319 12,000  Level Potomac TRACON
02:33PM 38.2386 -76.6721 169° South  Level FlightAware Approximate
02:33PM 38.9500 -76.9333 128° Southeast 301 346 14,900  Level Potomac TRACON
02:34PM 38.1196 -76.6621 165° South  Level FlightAware Approximate
02:36PM 38.7858 -76.8514 159° South 348 400 18,900  Level Washington Center
02:37PM 38.6925 -76.8019 158° South 358 412 19,000  Climbing Washington Center
02:38PM 38.6033 -76.7525 157° South 371 427 19,000  Level Washington Center
02:39PM 38.4975 -76.7192 166° South 385 443 19,000 840 Level Washington Center
02:40PM 38.3869 -76.7042 174° South 397 457 20,800 1,920 Climbing Washington Center
02:41PM 38.2725 -76.6867 173° South 407 468 22,900 1,980 Climbing Washington Center
02:42PM 38.1558 -76.6717 174° South 412 474 24,800 1,680 Climbing Washington Center
02:43PM 38.0372 -76.6569 174° South 424 488 26,400 1,440 Climbing Washington Center
02:44PM 37.9183 -76.6500 177° South 429 494 27,800 1,200 Climbing Washington Center
02:45PM 37.7931 -76.6667 186° South 435 501 28,900 1,140 Climbing Washington Center
02:46PM 37.6697 -76.6831 186° South 446 513 30,100 960 Climbing Washington Center
02:47PM 37.5444 -76.6997 186° South 451 519 30,900 900 Climbing Washington Center
02:48PM 37.4169 -76.7242 189° South 463 533 32,000 1,080 Climbing Washington Center
02:49PM 37.2978 -76.7719 198° South 463 533 33,100 960 Climbing Washington Center
02:50PM 37.1886 -76.8197 199° South 442 509 34,000 420 Climbing Washington Center
02:51PM 37.0778 -76.8650 198° South 429 494 34,000  Level Washington Center
02:52PM 36.9708 -76.9100 199° South 419 482 34,000  Level Washington Center
02:53PM 36.8619 -76.9547 198° South 419 482 34,000 120 Level Washington Center
02:54PM 36.7550 -76.9994 199° South 414 476 34,300 660 Climbing Washington Center
02:55PM 36.6481 -77.0442 199° South 409 471 35,300 840 Climbing Washington Center
02:56PM 36.5389 -77.0886 198° South 409 471 36,000 300 Climbing Washington Center
02:57PM 36.4342 -77.1333 199° South 409 471 36,000  Level Washington Center
02:58PM 36.3272 -77.1750 197° South 404 465 36,000  Level Washington Center
02:59PM 36.2264 -77.2142 197° South 404 465 36,000  Level Washington Center
03:00PM 36.1111 -77.2658 200° South 397 457 36,000  Level Washington Center
03:01PM 36.0039 -77.3072 197° South 397 457 36,000  Level Washington Center
03:02PM 35.8950 -77.3483 197° South 408 470 36,000 300 Level Washington Center
03:03PM 35.7878 -77.3947 199° South 408 470 36,700 840 Climbing Washington Center
03:04PM 35.6969 -77.4719 215° Southwest 397 457 37,800 600 Climbing Washington Center
03:05PM 35.6100 -77.5542 218° Southwest 397 457 38,000 60 Climbing Washington Center
03:06PM 35.5272 -77.6364 219° Southwest 397 457 38,000  Level Washington Center
03:07PM 35.4425 -77.7131 216° Southwest 392 451 38,000  Level Washington Center
03:08PM 35.3575 -77.7925 217° Southwest 387 445 38,000  Level Washington Center
03:09PM 35.2728 -77.8689 216° Southwest 387 445 38,000  Level Washington Center
03:10PM 35.1983 -77.9406 218° Southwest 387 445 38,000  Level Washington Center
03:11PM 35.1153 -78.0194 218° Southwest 387 445 38,000  Level Washington Center
03:12PM 35.0303 -78.0981 217° Southwest 382 440 38,000  Level Washington Center
03:13PM 34.9494 -78.1742 218° Southwest 382 440 38,000  Level Washington Center
03:15PM 34.7442 -78.3753 219° Southwest 380 437 38,000  Level Jacksonville Center
03:16PM 34.6492 -78.4561 215° Southwest 385 443 38,000  Level Jacksonville Center
03:17PM 34.5622 -78.5336 216° Southwest 385 443 38,000  Level Jacksonville Center
03:18PM 34.4897 -78.6078 220° Southwest 385 443 38,000  Level Jacksonville Center
03:19PM 34.4028 -78.6900 218° Southwest 385 443 38,000  Level Jacksonville Center
03:20PM 34.3178 -78.7669 217° Southwest 391 450 38,000  Level Jacksonville Center
03:21PM 34.2325 -78.8439 217° Southwest 391 450 38,000  Level Jacksonville Center
03:22PM 34.1472 -78.9206 217° Southwest 391 450 38,000  Level Jacksonville Center
03:23PM 34.0642 -78.9947 216° Southwest 386 444 38,000  Level Jacksonville Center
03:24PM 33.9747 -79.0736 216° Southwest 386 444 38,000  Level Jacksonville Center
03:25PM 33.8894 -79.1500 217° Southwest 391 450 38,000  Level Jacksonville Center
03:26PM 33.7956 -79.2189 211° Southwest 391 450 38,000  Level Jacksonville Center
03:27PM 33.6933 -79.2931 211° Southwest 391 450 38,000  Level Jacksonville Center
03:28PM 33.6108 -79.3339 202° Southwest 378 435 38,000  Level Jacksonville Center
03:29PM 33.5186 -79.3925 208° Southwest 378 435 38,000  Level Jacksonville Center
03:30PM 33.4244 -79.4533 208° Southwest 385 443 38,000  Level Jacksonville Center
03:31PM 33.3319 -79.5117 208° Southwest 385 443 38,000  Level Jacksonville Center
03:32PM 33.2375 -79.5697 207° Southwest 385 443 38,000 -60 Level Jacksonville Center
03:33PM 33.1453 -79.6278 208° Southwest 385 443 37,900  Descending Jacksonville Center
03:34PM 33.0508 -79.6883 208° Southwest 385 443 38,000  Climbing Jacksonville Center
03:35PM 32.9542 -79.7461 207° Southwest 385 443 37,900  Descending Jacksonville Center
03:36PM 32.8617 -79.8061 209° Southwest 385 443 38,000  Climbing Jacksonville Center
03:37PM 32.7669 -79.8639 207° Southwest 385 443 38,000  Level Jacksonville Center
03:38PM 32.6703 -79.9239 208° Southwest 385 443 38,000  Level Jacksonville Center
03:39PM 32.5778 -79.9836 209° Southwest 385 443 38,000  Level Jacksonville Center
03:40PM 32.4789 -80.0433 207° Southwest 385 443 38,000  Level Jacksonville Center
03:41PM 32.3864 -80.1003 207° Southwest 385 443 38,000  Level Jacksonville Center
03:42PM 32.2917 -80.1622 209° Southwest 385 443 38,000  Level Jacksonville Center
03:43PM 32.1947 -80.2217 207° Southwest 390 449 38,000  Level Jacksonville Center
03:44PM 32.0978 -80.2783 206° Southwest 390 449 38,000  Level Jacksonville Center
03:45PM 32.0136 -80.3519 217° Southwest 390 449 38,000  Level Jacksonville Center
03:46PM 31.9317 -80.4300 219° Southwest 390 449 38,000  Level Jacksonville Center
03:47PM 31.8458 -80.5203 222° Southwest 384 442 38,000  Level Jacksonville Center
03:48PM 31.7617 -80.5933 216° Southwest 389 448 38,000  Level Jacksonville Center
03:49PM 31.6833 -80.6611 216° Southwest 389 448 38,000  Level Jacksonville Center
03:50PM 31.5969 -80.7364 217° Southwest 389 448 38,000  Level Jacksonville Center
03:51PM 31.5000 -80.8092 213° Southwest 382 440 38,000  Level Jacksonville Center
03:52PM 31.4197 -80.8719 214° Southwest 387 445 38,000  Level Jacksonville Center
03:53PM 31.3289 -80.9444 214° Southwest 395 455 38,000  Level Jacksonville Center
03:54PM 31.2339 -81.0047 208° Southwest 395 455 38,000  Level Jacksonville Center
03:55PM 31.1300 -81.0433 198° South 389 448 38,000  Level Jacksonville Center
03:56PM 31.0239 -81.0694 192° South 389 448 38,000  Level Jacksonville Center
03:57PM 30.9156 -81.0933 191° South 389 448 38,000  Level Jacksonville Center
03:58PM 30.8075 -81.1172 191° South 394 453 38,000 -60 Level Jacksonville Center
03:59PM 30.6972 -81.1411 191° South 399 459 37,900  Descending Jacksonville Center
04:00PM 30.5844 -81.1528 185° South 404 465 38,000  Climbing Jacksonville Center
04:01PM 30.4717 -81.1475 178° South 404 465 38,000  Level Jacksonville Center
04:02PM 30.3611 -81.1447 179° South 404 465 38,000  Level Jacksonville Center
04:03PM 30.2461 -81.1422 179° South 404 465 38,000  Level Jacksonville Center
04:04PM 30.1356 -81.1392 179° South 404 465 38,000 -300 Level Jacksonville Center
04:05PM 30.0206 -81.1367 179° South 404 465 37,500 -780 Descending Jacksonville Center
04:06PM 29.9058 -81.1339 179° South 404 465 36,500 -840 Descending Jacksonville Center
04:07PM 29.7908 -81.1289 178° South 404 465 35,900 -900 Descending Jacksonville Center
04:08PM 29.6719 -81.1261 179° South 416 479 34,800 -960 Descending Jacksonville Center
04:09PM 29.5425 -81.1236 179° South 422 486 34,000 -300 Descending Jacksonville Center
04:11PM 29.3100 -81.1111 177° South 423 487 34,000  Level Miami Center
04:12PM 29.2011 -81.0475 153° Southeast 428 493 34,000  Level Miami Center
04:13PM 29.1011 -80.9722 147° Southeast 423 487 34,000  Level Miami Center
04:14PM 28.9992 -80.8950 146° Southeast 428 493 34,000  Level Miami Center
04:15PM 28.8867 -80.8103 147° Southeast 449 517 34,000  Level Miami Center
04:16PM 28.7844 -80.7381 148° Southeast 449 517 34,000 -480 Level Miami Center
04:17PM 28.6800 -80.6633 148° Southeast 449 517 33,100 -1,440 Descending Miami Center
04:18PM 28.5858 -80.5939 147° Southeast 449 517 31,200 -1,920 Descending Miami Center
04:19PM 28.4833 -80.5222 148° Southeast 439 505 29,300 -2,040 Descending Miami Center
04:20PM 28.3750 -80.4431 147° Southeast 422 486 27,200 -1,980 Descending Miami Center
04:21PM 28.2739 -80.3950 157° South 406 467 25,400 -1,800 Descending Miami Center
04:22PM 28.1703 -80.3658 166° South 387 445 23,700 -1,620 Descending Miami Center
04:23PM 28.0811 -80.3419 167° South 373 429 22,200 -1,500 Descending Miami Center
04:24PM 27.9836 -80.3156 167° South 373 429 20,700 -1,680 Descending Miami Center
04:25PM 27.8778 -80.2864 166° South 361 415 18,900 -1,740 Descending Miami Center
04:26PM 27.7864 -80.2625 167° South 350 403 17,300 -1,440 Descending Miami Center
04:27PM 27.6972 -80.2389 167° South 338 389 16,100 -1,320 Descending Miami Center
04:28PM 27.6164 -80.2175 167° South 332 382 14,700 -1,560 Descending Miami Center
04:29PM 27.5189 -80.1936 168° South 332 382 13,000 -1,560 Descending Miami Center
04:30PM 27.4297 -80.1678 166° South 332 382 11,600 -1,020 Descending Miami Center
04:31PM 27.3511 -80.1303 157° South 324 373 11,000 -840 Descending Miami Center
04:32PM 27.2789 -80.0933 156° South 319 367 10,000 -1,380 Descending Miami Center
04:33PM 27.1997 -80.0889 177° South 297 342 8,300 -2,400 Descending Miami Center
04:34PM 27.1161 -80.0933 183° South 284 327 5,300 -2,700 Descending Miami Center
04:35PM 27.0367 -80.0867 176° South 284 327 3,000 -1,620 Descending Miami Center
04:36PM 26.9642 -80.0706 169° South 274 315 2,100 -540 Descending Miami Center
04:37PM 26.9081 -80.0481 160° South 257 296 2,000 -60 Descending Miami Center
04:38PM 26.8397 -80.0300 167° South 252 290 2,000  Level Miami Center